Time;durP1;ratioP1;P1;durP2;ratioP2;P2;SDS_P1;SDS_P2;PMS_P1;PMS_P2;Temp;Humidity;BMP_temperature;BMP_pressure;BME280_temperature;BME280_humidity;BME280_pressure;Samples;Min_cycle;Max_cycle;Signal;HPM_P1;HPM_P2
2022/07/13 00:01:34;;;;;;;5.03;2.80;;;21.00;39.20;;;;;;5051706;28;20427;-44
2022/07/13 00:04:00;;;;;;;6.37;2.63;;;21.00;39.30;;;;;;5051758;28;20193;-44
2022/07/13 00:06:26;;;;;;;3.73;2.73;;;20.90;39.20;;;;;;5051580;28;20165;-44
2022/07/13 00:08:52;;;;;;;3.87;2.60;;;20.90;39.40;;;;;;5051867;28;20239;-45
2022/07/13 00:11:18;;;;;;;3.70;2.23;;;20.90;39.40;;;;;;5051577;28;20185;-45
2022/07/13 00:13:43;;;;;;;3.60;2.37;;;20.80;39.40;;;;;;5051524;28;20184;-45
2022/07/13 00:16:09;;;;;;;3.00;2.30;;;20.80;39.40;;;;;;5051424;28;20173;-44
2022/07/13 00:18:35;;;;;;;3.07;1.97;;;20.70;39.30;;;;;;5051462;28;20197;-44
2022/07/13 00:21:01;;;;;;;4.00;2.77;;;20.70;39.40;;;;;;5051562;28;20185;-44
2022/07/13 00:23:26;;;;;;;3.93;2.60;;;20.70;39.60;;;;;;5051693;28;20185;-44
2022/07/13 00:25:52;;;;;;;5.07;2.83;;;20.70;39.60;;;;;;5051387;28;20165;-43
2022/07/13 00:28:18;;;;;;;3.43;2.30;;;20.60;39.70;;;;;;5051553;28;20219;-44
2022/07/13 00:30:44;;;;;;;2.78;1.80;;;20.60;39.70;;;;;;5051462;28;20205;-44
2022/07/13 00:33:10;;;;;;;3.57;1.83;;;20.50;39.70;;;;;;5051399;28;20181;-44
2022/07/13 00:35:36;;;;;;;4.57;2.70;;;20.50;39.70;;;;;;5051207;28;20540;-45
2022/07/13 00:38:01;;;;;;;2.40;1.70;;;20.50;39.80;;;;;;5051400;28;20189;-44
2022/07/13 00:40:27;;;;;;;3.00;1.70;;;20.40;39.80;;;;;;5051134;28;20807;-44
2022/07/13 00:42:53;;;;;;;2.60;1.90;;;20.40;39.90;;;;;;5053877;28;20494;-44
2022/07/13 00:45:19;;;;;;;3.03;2.70;;;20.40;39.90;;;;;;5053598;28;20173;-45
2022/07/13 00:47:49;;;;;;;3.60;2.30;;;20.40;39.90;;;;;;5054929;28;20177;-44
2022/07/13 00:50:15;;;;;;;3.50;2.55;;;20.40;40.00;;;;;;5054991;28;20177;-44
2022/07/13 00:52:41;;;;;;;2.78;2.03;;;20.40;39.80;;;;;;5054860;28;20177;-44
2022/07/13 00:55:09;;;;;;;7.72;1.88;;;20.40;39.70;;;;;;5054812;28;20177;-43
2022/07/13 00:57:36;;;;;;;2.47;1.67;;;20.40;39.70;;;;;;5054447;28;20189;-43
2022/07/13 01:00:06;;;;;;;2.70;2.03;;;20.40;39.90;;;;;;5054733;28;20165;-46
2022/07/13 01:02:31;;;;;;;3.08;1.77;;;20.40;39.80;;;;;;5054514;28;20216;-45
2022/07/13 01:05:00;;;;;;;3.90;2.10;;;20.40;39.80;;;;;;5054619;28;20196;-44
2022/07/13 01:07:26;;;;;;;2.90;2.17;;;20.30;39.80;;;;;;5054570;28;20176;-45
2022/07/13 01:09:51;;;;;;;4.07;2.73;;;20.30;39.80;;;;;;5054520;28;20169;-44
2022/07/13 01:12:18;;;;;;;4.23;2.10;;;20.30;39.90;;;;;;5054299;28;20419;-44
2022/07/13 01:14:44;;;;;;;4.70;2.70;;;20.30;40.20;;;;;;5054417;28;20172;-44
2022/07/13 01:17:11;;;;;;;4.00;2.15;;;20.30;40.10;;;;;;5054048;28;20323;-46
2022/07/13 01:19:56;;;;;;;3.40;1.98;;;20.20;40.00;;;;;;5054359;28;20166;-45
2022/07/13 01:22:25;;;;;;;3.72;1.98;;;20.20;40.00;;;;;;5054192;28;20193;-44
2022/07/13 01:24:52;;;;;;;3.35;2.22;;;20.20;40.00;;;;;;5054273;28;20248;-45
2022/07/13 01:27:18;;;;;;;3.90;2.90;;;20.20;40.40;;;;;;5053938;28;20166;-46
2022/07/13 01:29:44;;;;;;;2.67;1.90;;;20.10;40.20;;;;;;5054147;28;20162;-45
2022/07/13 01:32:10;;;;;;;4.60;3.10;;;20.10;40.30;;;;;;5054041;28;20557;-44
2022/07/13 01:34:36;;;;;;;3.90;2.27;;;20.00;40.20;;;;;;5054066;28;20173;-46
2022/07/13 01:37:02;;;;;;;3.20;1.80;;;20.00;40.20;;;;;;5053759;28;21063;-46
2022/07/13 01:39:28;;;;;;;3.25;2.08;;;20.00;40.30;;;;;;5053953;28;20252;-46
2022/07/13 01:41:54;;;;;;;3.97;2.43;;;19.90;40.40;;;;;;5053653;28;20304;-46
2022/07/13 01:44:20;;;;;;;3.60;2.10;;;19.90;40.40;;;;;;5053875;28;20268;-46
2022/07/13 01:46:45;;;;;;;3.17;2.20;;;19.90;40.70;;;;;;5053631;28;20242;-46
2022/07/13 01:49:12;;;;;;;2.80;1.83;;;19.90;40.80;;;;;;5053940;28;20629;-46
2022/07/13 01:51:38;;;;;;;3.97;2.60;;;19.90;40.90;;;;;;5053626;28;20251;-46
2022/07/13 01:54:04;;;;;;;3.25;1.85;;;19.90;40.90;;;;;;5053238;28;20182;-47
2022/07/13 01:56:32;;;;;;;4.82;2.45;;;19.90;40.90;;;;;;5053348;28;20173;-46
2022/07/13 01:59:00;;;;;;;3.03;2.47;;;19.80;41.20;;;;;;5053437;28;20266;-45
2022/07/13 02:01:26;;;;;;;3.58;2.00;;;19.80;41.00;;;;;;5053701;28;20583;-46
2022/07/13 02:03:53;;;;;;;4.60;2.23;;;19.80;41.00;;;;;;5053734;28;20178;-45
2022/07/13 02:06:19;;;;;;;2.80;2.10;;;19.90;41.20;;;;;;5053221;28;20165;-46
2022/07/13 02:08:45;;;;;;;3.65;2.10;;;19.90;41.40;;;;;;5053400;28;20189;-45
2022/07/13 02:11:18;;;;;;;2.63;1.80;;;19.80;41.40;;;;;;5053196;28;20197;-45
2022/07/13 02:13:47;;;;;;;2.80;1.83;;;19.90;41.30;;;;;;5053345;28;20165;-46
2022/07/13 02:16:14;;;;;;;4.18;1.55;;;19.90;41.30;;;;;;5053006;28;20169;-45
2022/07/13 02:18:41;;;;;;;2.80;1.90;;;19.90;41.40;;;;;;5053122;28;20243;-45
2022/07/13 02:21:07;;;;;;;2.80;2.10;;;20.00;40.70;;;;;;5053497;28;20197;-45
2022/07/13 02:23:33;;;;;;;2.80;1.70;;;20.00;40.70;;;;;;5053337;28;20833;-46
2022/07/13 02:25:58;;;;;;;2.23;1.43;;;20.00;40.90;;;;;;5052850;28;20173;-46
2022/07/13 02:28:24;;;;;;;2.40;1.67;;;20.00;40.80;;;;;;5053028;28;20200;-46
2022/07/13 02:30:50;;;;;;;2.73;2.07;;;20.10;40.60;;;;;;5053130;28;20193;-45
2022/07/13 02:33:16;;;;;;;3.70;1.70;;;20.10;40.40;;;;;;5052894;28;20529;-46
2022/07/13 02:35:42;;;;;;;2.90;1.90;;;20.20;40.70;;;;;;5052810;28;20411;-45
2022/07/13 02:38:07;;;;;;;3.97;1.70;;;20.20;40.70;;;;;;5052681;28;20600;-45
2022/07/13 02:40:33;;;;;;;3.20;1.97;;;20.20;40.60;;;;;;5052546;28;20193;-45
2022/07/13 02:42:59;;;;;;;2.28;1.33;;;20.30;40.90;;;;;;5052741;28;20384;-47
2022/07/13 02:45:26;;;;;;;2.50;1.90;;;20.30;40.90;;;;;;5052628;28;20223;-45
2022/07/13 02:47:51;;;;;;;2.70;1.70;;;20.30;40.80;;;;;;5052502;28;20400;-45
2022/07/13 02:50:17;;;;;;;3.40;2.20;;;20.30;40.80;;;;;;5052517;28;20679;-46
2022/07/13 02:52:43;;;;;;;6.03;2.37;;;20.40;40.90;;;;;;5052533;28;20180;-45
2022/07/13 02:55:09;;;;;;;2.90;1.63;;;20.40;40.70;;;;;;5052573;28;20180;-45
2022/07/13 02:57:35;;;;;;;2.83;2.05;;;20.40;41.00;;;;;;5052202;28;20262;-46
2022/07/13 03:00:01;;;;;;;3.00;2.10;;;20.40;41.00;;;;;;5052472;28;20169;-45
2022/07/13 03:02:27;;;;;;;2.77;1.90;;;20.40;40.80;;;;;;5052583;28;20196;-46
2022/07/13 03:04:52;;;;;;;2.77;1.87;;;20.40;40.60;;;;;;5051680;28;20821;-45
2022/07/13 03:07:18;;;;;;;3.40;1.70;;;20.40;40.80;;;;;;5052065;28;20162;-46
2022/07/13 03:09:44;;;;;;;2.80;1.80;;;20.50;41.00;;;;;;5052378;28;20621;-46
2022/07/13 03:12:10;;;;;;;3.53;1.73;;;20.50;40.60;;;;;;5052220;28;20219;-45
2022/07/13 03:14:36;;;;;;;3.53;1.93;;;20.50;40.60;;;;;;5052335;28;20177;-46
2022/07/13 03:17:02;;;;;;;2.10;1.37;;;20.50;40.70;;;;;;5051946;28;20408;-47
2022/07/13 03:19:28;;;;;;;3.20;2.03;;;20.50;40.50;;;;;;5051968;28;20205;-46
2022/07/13 03:21:54;;;;;;;2.70;2.17;;;20.50;40.40;;;;;;5052119;28;20367;-46
2022/07/13 03:24:20;;;;;;;3.00;2.03;;;20.60;40.20;;;;;;5051988;28;20400;-46
2022/07/13 03:26:46;;;;;;;3.50;1.80;;;20.50;40.20;;;;;;5051901;28;20179;-45
2022/07/13 03:29:11;;;;;;;3.00;2.00;;;20.50;40.20;;;;;;5052063;28;20439;-46
2022/07/13 03:31:37;;;;;;;3.77;1.60;;;20.60;40.00;;;;;;5051963;28;20276;-45
2022/07/13 03:34:03;;;;;;;3.20;1.63;;;20.60;40.10;;;;;;5051998;28;20185;-46
2022/07/13 03:36:30;;;;;;;2.40;1.20;;;20.60;40.30;;;;;;5051718;28;20564;-45
2022/07/13 03:38:56;;;;;;;3.75;1.85;;;20.60;40.40;;;;;;5052000;28;20209;-46
2022/07/13 03:41:22;;;;;;;4.80;1.87;;;20.60;40.40;;;;;;5051792;28;20607;-45
2022/07/13 03:43:48;;;;;;;2.40;1.47;;;20.60;40.40;;;;;;5106560;22;20231;-49
2022/07/13 03:46:14;;;;;;;2.60;1.77;;;20.60;40.60;;;;;;5091439;28;20402;-47
2022/07/13 03:48:39;;;;;;;3.77;1.83;;;20.60;40.60;;;;;;5092090;28;20170;-49
2022/07/13 03:51:05;;;;;;;3.30;2.67;;;20.60;40.50;;;;;;5092083;28;20168;-48
2022/07/13 03:53:31;;;;;;;3.27;2.40;;;20.60;40.40;;;;;;5091927;28;20223;-47
2022/07/13 03:55:57;;;;;;;3.10;1.93;;;20.70;40.50;;;;;;5091829;28;20417;-48
2022/07/13 03:58:23;;;;;;;3.40;1.63;;;20.70;40.40;;;;;;5091893;28;20445;-49
2022/07/13 04:00:48;;;;;;;3.60;1.93;;;20.70;40.60;;;;;;5091930;28;20168;-49
2022/07/13 04:03:14;;;;;;;2.57;1.70;;;20.70;40.70;;;;;;5091888;28;20195;-47
2022/07/13 04:05:40;;;;;;;2.10;1.40;;;20.70;40.60;;;;;;5091723;28;20451;-47
2022/07/13 04:08:06;;;;;;;3.90;1.93;;;20.70;40.70;;;;;;5091818;28;20168;-49
2022/07/13 04:10:31;;;;;;;2.80;2.30;;;20.80;40.80;;;;;;5091819;28;20168;-48
2022/07/13 04:12:58;;;;;;;2.80;1.60;;;20.80;40.70;;;;;;5091820;28;20685;-48
2022/07/13 04:15:24;;;;;;;3.30;2.22;;;20.80;40.70;;;;;;5091824;28;20704;-47
2022/07/13 04:17:50;;;;;;;5.05;1.98;;;20.80;40.50;;;;;;5095397;28;20204;-47
2022/07/13 04:20:16;;;;;;;3.67;1.83;;;20.90;40.50;;;;;;5095621;28;20179;-48
2022/07/13 04:22:41;;;;;;;2.67;1.67;;;20.90;40.00;;;;;;5095654;28;20188;-48
2022/07/13 04:25:08;;;;;;;2.30;1.37;;;21.00;39.70;;;;;;5095778;28;20168;-49
2022/07/13 04:27:34;;;;;;;2.83;1.77;;;20.90;39.70;;;;;;5095547;28;20254;-47
2022/07/13 04:30:01;;;;;;;2.67;1.52;;;20.90;40.00;;;;;;5095344;28;20208;-47
2022/07/13 04:32:26;;;;;;;3.10;2.10;;;20.90;40.20;;;;;;5095370;28;20559;-49
2022/07/13 04:34:53;;;;;;;2.13;1.30;;;20.90;40.20;;;;;;5095599;28;20187;-48
2022/07/13 04:37:18;;;;;;;2.33;1.55;;;21.00;40.60;;;;;;5095000;28;20629;-47
2022/07/13 04:39:44;;;;;;;2.70;1.70;;;21.00;40.70;;;;;;5095355;28;20204;-49
2022/07/13 04:42:10;;;;;;;2.00;1.40;;;20.90;40.60;;;;;;5095101;28;20192;-49
2022/07/13 04:44:35;;;;;;;4.80;2.50;;;21.00;40.60;;;;;;5095201;28;20152;-48
2022/07/13 04:47:01;;;;;;;4.50;1.87;;;21.00;40.50;;;;;;5095004;28;20160;-48
2022/07/13 04:49:27;;;;;;;2.73;1.60;;;21.00;40.60;;;;;;5095065;28;20164;-49
2022/07/13 04:51:53;;;;;;;2.57;1.40;;;21.10;40.20;;;;;;5094961;28;20172;-49
2022/07/13 04:54:19;;;;;;;3.67;1.70;;;21.00;40.10;;;;;;5095135;28;20164;-48
2022/07/13 04:56:46;;;;;;;2.50;1.63;;;21.10;40.30;;;;;;5076878;28;20547;-49
2022/07/13 04:59:12;;;;;;;2.10;1.40;;;21.10;40.20;;;;;;5095070;28;20551;-49
2022/07/13 05:01:38;;;;;;;2.90;1.90;;;21.10;40.00;;;;;;5094840;28;20160;-49
2022/07/13 05:04:05;;;;;;;2.85;1.58;;;21.10;39.80;;;;;;5094690;28;20203;-47
2022/07/13 05:06:31;;;;;;;2.28;1.60;;;21.10;40.40;;;;;;5094733;28;20179;-47
2022/07/13 05:08:58;;;;;;;3.28;2.13;;;21.10;40.20;;;;;;5094685;28;20172;-48
2022/07/13 05:11:24;;;;;;;3.83;1.90;;;21.10;40.40;;;;;;5094661;28;20176;-48
2022/07/13 05:13:50;;;;;;;3.10;2.03;;;21.10;40.60;;;;;;5094765;28;20203;-49
2022/07/13 05:16:16;;;;;;;2.97;1.80;;;21.10;40.40;;;;;;5094369;28;20164;-49
2022/07/13 05:18:42;;;;;;;3.33;1.85;;;21.20;40.00;;;;;;5094475;28;20567;-49
2022/07/13 05:21:08;;;;;;;3.00;1.90;;;21.20;40.10;;;;;;5094355;28;20197;-49
2022/07/13 05:23:35;;;;;;;3.13;1.70;;;21.20;40.20;;;;;;5094377;28;20666;-47
2022/07/13 05:26:01;;;;;;;5.78;2.75;;;21.20;40.00;;;;;;5094133;28;20184;-48
2022/07/13 05:28:27;;;;;;;3.50;2.00;;;21.30;39.90;;;;;;5093444;28;20172;-48
2022/07/13 05:30:53;;;;;;;3.80;2.37;;;21.30;39.80;;;;;;5094510;28;20179;-48
2022/07/13 05:33:20;;;;;;;2.40;1.93;;;21.30;39.90;;;;;;5094144;28;20487;-48
2022/07/13 05:35:46;;;;;;;2.67;1.83;;;21.30;39.90;;;;;;5094010;28;20167;-48
2022/07/13 05:38:12;;;;;;;3.13;2.10;;;21.40;39.90;;;;;;5094105;28;20495;-48
2022/07/13 05:40:38;;;;;;;3.13;1.27;;;21.50;39.80;;;;;;5094380;28;20429;-48
2022/07/13 05:43:05;;;;;;;3.08;1.55;;;21.50;39.60;;;;;;5093843;28;20265;-49
2022/07/13 05:45:31;;;;;;;2.67;1.73;;;21.50;39.60;;;;;;5093932;28;20642;-48
2022/07/13 05:47:56;;;;;;;2.40;1.70;;;21.60;39.60;;;;;;5093943;28;20187;-49
2022/07/13 05:50:22;;;;;;;2.80;2.40;;;21.60;39.50;;;;;;5093883;28;20172;-49
2022/07/13 05:52:48;;;;;;;4.57;1.60;;;21.70;39.50;;;;;;5093847;28;20290;-49
2022/07/13 05:55:14;;;;;;;3.40;2.10;;;21.70;39.40;;;;;;5093730;28;20417;-47
2022/07/13 05:57:39;;;;;;;2.40;1.50;;;21.80;39.20;;;;;;5093528;28;20271;-48
2022/07/13 06:00:13;;;;;;;4.30;1.83;;;21.90;39.20;;;;;;5093746;28;20546;-49
2022/07/13 06:02:40;;;;;;;3.83;2.00;;;21.90;39.10;;;;;;5095793;28;20252;-48
2022/07/13 06:05:06;;;;;;;2.90;1.77;;;22.00;38.90;;;;;;5096286;28;20409;-47
2022/07/13 06:07:32;;;;;;;2.63;1.63;;;22.00;38.90;;;;;;5096523;28;20398;-48
2022/07/13 06:09:58;;;;;;;2.77;1.90;;;22.10;38.90;;;;;;5096363;28;20413;-48
2022/07/13 06:12:28;;;;;;;4.57;1.90;;;22.20;39.00;;;;;;5096722;28;20780;-47
2022/07/13 06:14:54;;;;;;;2.40;1.70;;;22.20;38.90;;;;;;5096371;28;20455;-47
2022/07/13 06:17:21;;;;;;;2.80;2.20;;;22.30;39.00;;;;;;5095932;28;20489;-47
2022/07/13 06:19:51;;;;;;;3.42;2.00;;;22.30;38.80;;;;;;5096169;28;20416;-47
2022/07/13 06:22:21;;;;;;;4.03;1.97;;;22.40;38.60;;;;;;5096146;28;20198;-47
2022/07/13 06:24:47;;;;;;;2.70;2.03;;;22.40;38.50;;;;;;5096364;28;20398;-47
2022/07/13 06:27:13;;;;;;;2.20;1.40;;;22.40;38.50;;;;;;5095886;28;20175;-47
2022/07/13 06:29:43;;;;;;;2.90;1.80;;;22.50;38.60;;;;;;5096279;28;20164;-46
2022/07/13 06:32:14;;;;;;;2.77;1.63;;;22.50;38.60;;;;;;5095595;28;20527;-47
2022/07/13 06:34:39;;;;;;;3.57;1.80;;;22.60;38.60;;;;;;5096058;28;20413;-48
2022/07/13 06:37:06;;;;;;;3.87;1.80;;;22.70;38.40;;;;;;5095751;28;20206;-47
2022/07/13 06:39:33;;;;;;;3.50;1.90;;;22.70;38.40;;;;;;5096015;28;20195;-46
2022/07/13 06:41:58;;;;;;;2.97;1.90;;;22.80;38.10;;;;;;5096216;28;20398;-47
2022/07/13 06:44:24;;;;;;;3.60;2.30;;;22.80;38.20;;;;;;5096190;28;20502;-47
2022/07/13 06:46:50;;;;;;;3.60;1.90;;;22.90;38.40;;;;;;5095558;28;20725;-47
2022/07/13 06:49:16;;;;;;;3.23;1.80;;;22.90;38.50;;;;;;5096003;28;20405;-47
2022/07/13 06:51:41;;;;;;;3.07;1.90;;;23.00;38.40;;;;;;5095984;28;20175;-47
2022/07/13 06:54:07;;;;;;;3.17;2.00;;;23.10;38.40;;;;;;5096268;28;20198;-47
2022/07/13 06:56:33;;;;;;;3.60;1.73;;;23.10;38.40;;;;;;5095757;28;20172;-47
2022/07/13 06:58:59;;;;;;;3.97;1.70;;;23.20;38.40;;;;;;5096155;28;20250;-48
2022/07/13 07:01:24;;;;;;;3.00;1.90;;;23.30;38.30;;;;;;5095999;28;20305;-48
2022/07/13 07:03:50;;;;;;;5.27;1.90;;;23.30;38.20;;;;;;5095599;28;20184;-47
2022/07/13 07:06:16;;;;;;;3.20;2.27;;;23.40;38.10;;;;;;5095768;28;20168;-47
2022/07/13 07:08:42;;;;;;;3.50;2.53;;;23.40;37.90;;;;;;5096040;28;20172;-47
2022/07/13 07:11:07;;;;;;;2.27;1.70;;;23.50;38.20;;;;;;5095998;28;20195;-47
2022/07/13 07:13:33;;;;;;;3.20;1.90;;;23.60;38.00;;;;;;5095611;28;20271;-47
2022/07/13 07:16:00;;;;;;;2.97;2.17;;;23.70;37.90;;;;;;5095875;28;20534;-48
2022/07/13 07:18:27;;;;;;;3.33;1.80;;;23.70;37.90;;;;;;5095358;28;20278;-47
2022/07/13 07:20:52;;;;;;;3.30;1.63;;;23.70;38.40;;;;;;5095721;28;20971;-47
2022/07/13 07:23:18;;;;;;;3.47;2.07;;;23.80;37.70;;;;;;5095682;28;20434;-47
2022/07/13 07:25:44;;;;;;;3.37;2.00;;;23.90;37.60;;;;;;5095830;28;20156;-48
2022/07/13 07:28:10;;;;;;;3.90;1.93;;;23.90;37.40;;;;;;5095890;28;20406;-46
2022/07/13 07:30:36;;;;;;;2.53;1.43;;;24.00;37.40;;;;;;5096442;28;20183;-47
2022/07/13 07:33:03;;;;;;;3.50;1.70;;;24.00;37.40;;;;;;5096025;28;20521;-47
2022/07/13 07:35:29;;;;;;;4.33;1.90;;;24.00;38.00;;;;;;5096216;28;20426;-48
2022/07/13 07:37:55;;;;;;;1.73;1.20;;;24.00;37.20;;;;;;5096183;28;20510;-47
2022/07/13 07:40:21;;;;;;;3.60;1.80;;;24.00;37.20;;;;;;5096153;28;20405;-47
2022/07/13 07:42:47;;;;;;;4.00;1.40;;;24.00;37.30;;;;;;5095896;28;20434;-47
2022/07/13 07:45:13;;;;;;;4.23;2.60;;;24.00;37.20;;;;;;5095854;28;20441;-48
2022/07/13 07:47:40;;;;;;;4.30;2.50;;;24.10;37.20;;;;;;5095793;28;20766;-46
2022/07/13 07:50:07;;;;;;;5.90;2.40;;;24.10;37.30;;;;;;5096493;28;20792;-48
2022/07/13 07:52:33;;;;;;;3.40;2.33;;;24.20;37.30;;;;;;5100194;28;20943;-47
2022/07/13 07:54:59;;;;;;;3.60;2.30;;;24.20;37.20;;;;;;5100964;28;20417;-47
2022/07/13 07:57:25;;;;;;;3.30;2.03;;;24.30;37.40;;;;;;5100418;28;20919;-48
2022/07/13 07:59:51;;;;;;;2.73;1.97;;;24.40;37.00;;;;;;5101122;28;20409;-48
2022/07/13 08:02:16;;;;;;;3.50;1.77;;;24.50;37.20;;;;;;5100317;28;20438;-48
2022/07/13 08:04:44;;;;;;;2.77;2.43;;;24.60;36.90;;;;;;5100460;28;20190;-47
2022/07/13 08:07:10;;;;;;;3.17;1.87;;;24.80;37.10;;;;;;5100905;28;20164;-48
2022/07/13 08:09:36;;;;;;;3.63;1.50;;;24.90;36.90;;;;;;5100632;28;20809;-48
2022/07/13 08:12:04;;;;;;;3.10;2.20;;;25.00;36.70;;;;;;5101259;28;20874;-47
2022/07/13 08:14:30;;;;;;;10.97;2.43;;;25.20;36.90;;;;;;5101038;28;20187;-47
2022/07/13 08:16:57;;;;;;;2.63;1.73;;;25.40;36.90;;;;;;5082221;28;20410;-47
2022/07/13 08:19:24;;;;;;;3.50;2.13;;;25.50;36.20;;;;;;5100956;28;20441;-48
2022/07/13 08:21:50;;;;;;;3.60;2.20;;;25.60;36.10;;;;;;5101330;28;20409;-48
2022/07/13 08:24:16;;;;;;;2.83;1.40;;;25.70;36.30;;;;;;5101611;28;20405;-48
2022/07/13 08:26:42;;;;;;;8.53;2.20;;;25.80;36.20;;;;;;5101305;28;20413;-48
2022/07/13 08:29:08;;;;;;;3.00;1.60;;;25.90;36.20;;;;;;5101444;28;20217;-48
2022/07/13 08:31:34;;;;;;;5.90;2.00;;;26.00;36.20;;;;;;5101627;28;20463;-48
2022/07/13 08:39:28;;;;;;;2.10;1.50;;;26.60;35.60;;;;;;5101423;28;20514;-48
2022/07/13 08:41:58;;;;;;;3.90;2.00;;;26.70;35.40;;;;;;5102733;28;20898;-47
2022/07/13 08:44:25;;;;;;;3.40;1.87;;;26.90;35.10;;;;;;5102898;28;20519;-47
2022/07/13 08:46:51;;;;;;;3.70;1.87;;;27.00;35.00;;;;;;5101916;28;20413;-48
2022/07/13 08:49:17;;;;;;;2.97;1.37;;;27.10;34.80;;;;;;5102249;28;20402;-48
2022/07/13 08:51:45;;;;;;;3.00;1.77;;;27.30;34.40;;;;;;5102694;28;20493;-46
2022/07/13 08:54:12;;;;;;;2.90;1.63;;;27.40;34.10;;;;;;5101929;28;20842;-48
2022/07/13 08:56:41;;;;;;;3.13;2.00;;;27.60;33.80;;;;;;5101557;28;20426;-48
2022/07/13 08:59:07;;;;;;;2.63;1.50;;;27.70;33.60;;;;;;5102680;28;20441;-48
2022/07/13 09:01:33;;;;;;;2.80;1.80;;;27.90;33.70;;;;;;5102256;28;20410;-48
2022/07/13 09:04:00;;;;;;;3.20;1.60;;;28.00;34.10;;;;;;5101487;28;20436;-48
2022/07/13 09:06:43;;;;;;;2.27;1.10;;;28.10;34.20;;;;;;5101825;28;20394;-47
2022/07/13 09:09:36;;;;;;;4.63;1.80;;;28.40;34.10;;;;;;5102365;28;20428;-48
2022/07/13 09:12:19;;;;;;;2.27;1.37;;;28.60;32.50;;;;;;5099174;28;20976;-47
2022/07/13 09:14:53;;;;;;;2.70;1.37;;;28.90;32.00;;;;;;5102299;28;20406;-47
2022/07/13 09:17:39;;;;;;;3.77;1.20;;;29.10;32.20;;;;;;5101926;28;20499;-48
2022/07/13 09:20:14;;;;;;;2.13;1.13;;;29.30;31.70;;;;;;5103759;28;20412;-48
2022/07/13 09:22:53;;;;;;;2.53;1.70;;;29.50;29.60;;;;;;5102906;28;20410;-47
2022/07/13 09:25:27;;;;;;;2.33;1.23;;;29.70;29.30;;;;;;5102094;28;20422;-47
2022/07/13 09:27:53;;;;;;;2.23;1.03;;;29.90;29.20;;;;;;5102955;28;20405;-47
2022/07/13 09:30:24;;;;;;;1.60;0.90;;;30.10;29.00;;;;;;5102339;28;20402;-48
2022/07/13 09:32:52;;;;;;;1.70;0.80;;;30.30;28.20;;;;;;5101626;28;20426;-48
2022/07/13 09:35:18;;;;;;;6.30;1.30;;;30.40;26.20;;;;;;5094626;28;20821;-48
2022/07/13 09:37:44;;;;;;;2.10;1.03;;;30.60;27.40;;;;;;5094373;28;20454;-49
2022/07/13 09:40:11;;;;;;;2.83;1.00;;;30.70;28.10;;;;;;5094249;28;20715;-48
2022/07/13 09:42:40;;;;;;;2.97;1.20;;;30.70;27.10;;;;;;5094149;28;20480;-48
2022/07/13 09:47:57;;;;;;;2.67;1.20;;;31.00;25.80;;;;;;5132535;22;20495;-47
2022/07/13 09:50:43;;;;;;;2.70;0.90;;;31.20;27.20;;;;;;5114478;28;20509;-45
2022/07/13 09:53:29;;;;;;;1.80;0.90;;;31.50;25.30;;;;;;5114059;27;20440;-45
2022/07/13 09:55:57;;;;;;;2.03;1.10;;;31.60;24.50;;;;;;5114062;28;20872;-44
2022/07/13 09:58:28;;;;;;;1.97;0.90;;;31.70;25.00;;;;;;5114340;28;20506;-44
2022/07/13 10:00:58;;;;;;;2.30;1.07;;;31.80;24.10;;;;;;5114033;28;20418;-44
2022/07/13 10:03:26;;;;;;;3.27;1.47;;;31.80;24.70;;;;;;5114099;28;20416;-44
2022/07/13 10:05:54;;;;;;;1.93;0.97;;;31.80;24.90;;;;;;5113960;28;20416;-44
2022/07/13 10:08:20;;;;;;;1.90;0.90;;;31.80;24.10;;;;;;5113888;28;20507;-44
2022/07/13 10:10:47;;;;;;;1.63;0.80;;;31.80;23.60;;;;;;5114009;28;20403;-43
2022/07/13 10:13:14;;;;;;;2.17;1.07;;;31.90;23.00;;;;;;5113722;28;20411;-45
2022/07/13 10:15:41;;;;;;;3.43;0.87;;;31.90;23.80;;;;;;5113763;28;20413;-42
2022/07/13 10:18:24;;;;;;;3.10;1.00;;;32.00;23.80;;;;;;5113717;28;20845;-45
2022/07/13 10:20:57;;;;;;;1.77;0.80;;;32.00;23.10;;;;;;5113649;28;20412;-43
2022/07/13 10:23:38;;;;;;;1.63;0.70;;;32.00;23.70;;;;;;5113682;28;20896;-45
2022/07/13 10:26:17;;;;;;;1.80;0.70;;;32.10;23.90;;;;;;5113624;28;20446;-44
2022/07/13 10:28:59;;;;;;;2.50;0.60;;;32.40;23.70;;;;;;5113675;28;20471;-43
2022/07/13 10:31:31;;;;;;;2.03;1.00;;;32.60;22.40;;;;;;5113581;28;20404;-45
2022/07/13 10:33:57;;;;;;;2.30;0.70;;;32.80;19.60;;;;;;5113550;28;20421;-45
2022/07/13 10:36:49;;;;;;;1.60;0.60;;;33.00;21.30;;;;;;5113116;28;20468;-44
2022/07/13 10:39:16;;;;;;;1.90;0.80;;;33.30;19.40;;;;;;5113550;28;20441;-44
2022/07/13 10:42:03;;;;;;;2.23;0.90;;;33.40;20.90;;;;;;5113528;28;20409;-44
2022/07/13 10:44:35;;;;;;;2.10;1.20;;;33.30;21.70;;;;;;5113577;28;20432;-43
2022/07/13 10:47:03;;;;;;;2.43;1.27;;;33.20;21.10;;;;;;5112862;28;20952;-45
2022/07/13 10:49:53;;;;;;;1.70;0.77;;;33.20;21.30;;;;;;5113118;28;20492;-43
2022/07/13 10:52:21;;;;;;;1.70;0.87;;;33.30;20.40;;;;;;5112862;28;20444;-44
2022/07/13 10:55:06;;;;;;;1.83;1.00;;;33.60;21.50;;;;;;5113502;28;20436;-42
2022/07/13 10:57:33;;;;;;;1.70;0.80;;;33.90;21.30;;;;;;5112839;28;20842;-45
2022/07/13 11:00:40;;;;;;;2.37;1.17;;;34.10;22.00;;;;;;5113235;28;20451;-44
2022/07/13 11:03:44;;;;;;;2.70;0.83;;;34.10;20.00;;;;;;5101496;28;20413;-44
2022/07/13 11:06:21;;;;;;;1.90;1.00;;;33.90;19.80;;;;;;5112686;28;20456;-44
2022/07/13 11:09:06;;;;;;;1.90;0.90;;;33.70;20.60;;;;;;5112900;28;20399;-45
2022/07/13 11:11:33;;;;;;;1.80;0.87;;;33.60;21.30;;;;;;5113081;28;20579;-45
2022/07/13 11:13:59;;;;;;;2.47;1.63;;;33.60;21.10;;;;;;5112819;28;20409;-46
2022/07/13 11:16:49;;;;;;;1.90;0.90;;;33.60;20.00;;;;;;5112470;27;20436;-45
2022/07/13 11:19:35;;;;;;;2.67;1.17;;;33.60;20.20;;;;;;5112624;28;20469;-45
2022/07/13 11:22:08;;;;;;;2.37;1.20;;;33.50;21.00;;;;;;5112563;28;20507;-46
2022/07/13 11:27:37;;;;;;;1.70;0.93;;;33.60;22.10;;;;;;5112150;28;20425;-46
2022/07/13 11:30:04;;;;;;;2.00;1.20;;;33.60;21.10;;;;;;5112611;28;20392;-45
2022/07/13 11:32:30;;;;;;;2.00;1.00;;;33.50;21.10;;;;;;5112525;28;20405;-44
2022/07/13 11:34:56;;;;;;;2.17;1.40;;;33.50;21.40;;;;;;5112515;28;21054;-44
2022/07/13 11:37:25;;;;;;;2.87;1.10;;;33.60;21.50;;;;;;5112521;28;20428;-44
2022/07/13 11:39:51;;;;;;;5.07;1.53;;;33.60;21.90;;;;;;5112773;28;20223;-44
2022/07/13 11:42:22;;;;;;;2.67;1.43;;;33.60;23.30;;;;;;5112550;28;20401;-44
2022/07/13 11:44:52;;;;;;;2.83;1.20;;;33.60;21.50;;;;;;5112453;28;20254;-44
2022/07/13 11:47:18;;;;;;;3.33;1.87;;;33.50;21.70;;;;;;5111897;28;20536;-44
2022/07/13 11:49:46;;;;;;;2.10;1.00;;;33.50;21.50;;;;;;5112358;28;20420;-44
2022/07/13 11:52:22;;;;;;;2.37;1.20;;;33.40;22.20;;;;;;5112408;28;20417;-44
2022/07/13 11:55:03;;;;;;;2.77;1.20;;;33.30;22.40;;;;;;5112307;28;20408;-44
2022/07/13 11:57:30;;;;;;;2.03;1.20;;;33.20;23.60;;;;;;5111958;28;21127;-44
2022/07/13 12:00:01;;;;;;;2.33;1.00;;;33.10;22.90;;;;;;5112506;28;20416;-44
2022/07/13 12:02:26;;;;;;;2.40;1.53;;;33.10;23.40;;;;;;5112553;28;20404;-44
2022/07/13 12:04:52;;;;;;;2.30;1.30;;;33.10;22.90;;;;;;5112302;28;20414;-44
2022/07/13 12:07:32;;;;;;;2.80;1.60;;;33.10;23.20;;;;;;5112198;28;20197;-44
2022/07/13 12:10:06;;;;;;;2.10;1.33;;;33.10;23.20;;;;;;5112515;28;20156;-45
2022/07/13 12:12:36;;;;;;;3.27;1.47;;;33.00;22.60;;;;;;5112293;28;20405;-44
2022/07/13 12:15:04;;;;;;;1.90;1.00;;;32.90;22.30;;;;;;5112509;28;20424;-44
2022/07/13 12:17:40;;;;;;;1.93;1.27;;;33.00;23.20;;;;;;5111713;28;20460;-44
2022/07/13 12:20:31;;;;;;;1.80;1.03;;;33.00;23.70;;;;;;5112372;28;20385;-45
2022/07/13 12:22:57;;;;;;;2.00;0.80;;;33.00;22.80;;;;;;5112080;28;20420;-44
2022/07/13 12:25:24;;;;;;;2.10;1.13;;;33.10;22.40;;;;;;5112044;28;20923;-45
2022/07/13 12:27:54;;;;;;;1.77;0.93;;;33.10;22.70;;;;;;5111830;28;20421;-44
2022/07/13 12:30:20;;;;;;;2.00;1.20;;;33.10;22.30;;;;;;5112057;28;20465;-43
2022/07/13 12:32:56;;;;;;;2.00;1.10;;;33.10;22.10;;;;;;5111923;28;20495;-44
2022/07/13 12:35:37;;;;;;;2.67;1.00;;;33.20;21.40;;;;;;5111965;28;20415;-43
2022/07/13 12:38:09;;;;;;;2.20;1.20;;;33.20;22.20;;;;;;5114701;28;20448;-42
2022/07/13 12:40:42;;;;;;;2.63;0.80;;;33.10;22.50;;;;;;5115758;28;20416;-44
2022/07/13 12:43:35;;;;;;;3.50;1.00;;;33.10;22.30;;;;;;5115749;28;20755;-44
2022/07/13 12:46:04;;;;;;;3.47;1.40;;;33.00;21.50;;;;;;5113423;28;20504;-43
2022/07/13 12:48:32;;;;;;;2.10;1.23;;;33.00;22.40;;;;;;5115620;28;20503;-44
2022/07/13 12:51:07;;;;;;;2.17;1.03;;;32.90;21.20;;;;;;5115885;28;20428;-44
2022/07/13 12:53:58;;;;;;;4.37;1.00;;;32.90;21.50;;;;;;5115410;27;20393;-44
2022/07/13 12:56:27;;;;;;;2.10;0.90;;;32.80;22.00;;;;;;5115425;28;20421;-45
2022/07/13 12:59:05;;;;;;;1.97;1.00;;;32.80;22.00;;;;;;5115577;28;20448;-43
2022/07/13 13:01:38;;;;;;;1.77;0.87;;;32.90;20.40;;;;;;5115699;28;20393;-44
2022/07/13 13:04:07;;;;;;;2.07;0.90;;;32.90;21.50;;;;;;5115309;28;20910;-44
2022/07/13 13:06:33;;;;;;;2.07;0.80;;;32.90;20.00;;;;;;5115206;28;20425;-44